Time;durP1;ratioP1;P1;durP2;ratioP2;P2;SDS_P1;SDS_P2;PMS_P1;PMS_P2;Temp;Humidity;BMP_temperature;BMP_pressure;BME280_temperature;BME280_humidity;BME280_pressure;Samples;Min_cycle;Max_cycle;Signal;HPM_P1;HPM_P2
2021/01/25 00:02:29;;;;;;;1999.90;999.90;;;1.30;99.90;;;;;;5054232;28;20434;-87
2021/01/25 00:04:58;;;;;;;1999.90;999.90;;;1.40;99.90;;;;;;5053988;28;20243;-87
2021/01/25 00:07:24;;;;;;;1999.90;999.90;;;1.40;99.90;;;;;;5053138;28;20176;-87
2021/01/25 00:09:51;;;;;;;1999.90;999.90;;;1.30;99.90;;;;;;5053910;28;20666;-87
2021/01/25 00:12:16;;;;;;;1999.90;999.90;;;1.30;99.90;;;;;;5053556;28;20231;-87
2021/01/25 00:14:50;;;;;;;1999.90;999.90;;;1.30;99.90;;;;;;5054143;28;20194;-87
2021/01/25 00:17:19;;;;;;;1999.90;999.90;;;1.30;99.90;;;;;;5052477;28;20914;-87
2021/01/25 00:19:44;;;;;;;1999.90;999.90;;;1.20;99.90;;;;;;5053692;28;20192;-86
2021/01/25 00:22:10;;;;;;;1999.90;999.90;;;1.20;99.90;;;;;;5052748;28;20161;-86
2021/01/25 00:24:39;;;;;;;1999.90;999.90;;;1.20;99.90;;;;;;5053744;28;20159;-87
2021/01/25 00:27:05;;;;;;;1999.90;999.90;;;1.20;99.90;;;;;;5052361;28;20169;-86
2021/01/25 00:29:31;;;;;;;1999.90;999.90;;;1.10;99.90;;;;;;5053528;28;20183;-87
2021/01/25 00:31:58;;;;;;;1999.90;999.90;;;1.10;99.90;;;;;;5052700;28;20175;-86
2021/01/25 00:34:27;;;;;;;1999.90;999.90;;;1.10;99.90;;;;;;5052660;28;20180;-86
2021/01/25 00:36:53;;;;;;;1999.90;999.90;;;1.10;99.90;;;;;;5054037;28;20333;-86
2021/01/25 00:39:19;;;;;;;1999.90;999.90;;;1.10;99.90;;;;;;5052523;28;20207;-86
2021/01/25 00:41:45;;;;;;;1999.90;999.90;;;1.10;99.90;;;;;;5054007;28;20395;-86
2021/01/25 00:44:11;;;;;;;1999.90;999.90;;;1.10;99.90;;;;;;5053402;28;20893;-86
2021/01/25 00:46:36;;;;;;;1999.90;999.90;;;1.00;99.90;;;;;;5053687;28;20489;-86
2021/01/25 00:49:03;;;;;;;1999.90;999.90;;;1.00;99.90;;;;;;5052607;28;20419;-86
2021/01/25 00:51:28;;;;;;;1999.90;999.90;;;1.00;99.90;;;;;;5054103;28;20631;-87
2021/01/25 00:53:54;;;;;;;1999.90;999.90;;;1.00;99.90;;;;;;5054040;28;20175;-86
2021/01/25 00:56:20;;;;;;;1999.90;999.90;;;1.00;99.90;;;;;;5053933;28;20615;-86
2021/01/25 00:58:46;;;;;;;1999.90;999.90;;;1.00;99.90;;;;;;5054059;28;20691;-86
2021/01/25 01:01:12;;;;;;;1999.90;999.90;;;1.00;99.90;;;;;;5054350;28;20396;-86
2021/01/25 01:03:38;;;;;;;1999.90;999.90;;;1.00;99.90;;;;;;5054406;28;20160;-86
2021/01/25 01:06:03;;;;;;;1999.90;999.90;;;1.00;99.90;;;;;;5053381;28;20480;-86
2021/01/25 01:08:35;;;;;;;1999.90;999.90;;;1.10;99.90;;;;;;5053731;28;20460;-86
2021/01/25 01:11:04;;;;;;;1999.90;999.90;;;1.00;99.90;;;;;;5052775;28;20836;-86
2021/01/25 01:13:30;;;;;;;1999.90;999.90;;;1.00;99.90;;;;;;5053436;28;20222;-86
2021/01/25 01:15:55;;;;;;;1999.90;999.90;;;1.10;99.90;;;;;;5054345;28;20606;-86
2021/01/25 01:18:21;;;;;;;1999.90;999.90;;;1.10;99.90;;;;;;5058059;28;20188;-86
2021/01/25 01:20:47;;;;;;;1999.90;999.90;;;1.10;99.90;;;;;;5058379;28;20399;-86
2021/01/25 01:23:13;;;;;;;1999.90;999.90;;;1.10;99.90;;;;;;5058388;28;20395;-86
2021/01/25 01:26:28;;;;;;;1999.90;999.90;;;1.10;99.90;;;;;;5201199;22;20307;-81
2021/01/25 01:29:00;;;;;;;1999.90;999.90;;;1.10;99.90;;;;;;5051106;28;20675;-82
2021/01/25 01:31:46;;;;;;;1999.90;999.90;;;1.00;99.90;;;;;;5064561;28;20164;-82
2021/01/25 01:35:12;;;;;;;;;;;;;;;;;;;;;
2021/01/25 01:38:32;;;;;;;1999.90;999.90;;;1.00;99.90;;;;;;5062988;28;20181;-82
2021/01/25 01:41:50;;;;;;;1999.90;999.90;;;0.90;99.90;;;;;;5062999;28;20184;-82
2021/01/25 01:48:35;;;;;;;1999.90;999.90;;;1.00;99.90;;;;;;4926405;29;20284;-81
2021/01/25 01:52:05;;;;;;;1999.90;999.90;;;1.10;99.90;;;;;;4925822;29;20220;-82
2021/01/25 01:55:01;;;;;;;1999.90;999.90;;;1.10;99.90;;;;;;4888654;29;20177;-82
2021/01/25 01:58:04;;;;;;;1999.90;999.90;;;1.00;99.90;;;;;;4910712;29;20177;-82
2021/01/25 02:04:56;;;;;;;;;;;;;;;;;;;;;
2021/01/25 02:11:36;;;;;;;1999.90;999.90;;;1.10;99.90;;;;;;4920614;29;20232;-82
2021/01/25 02:18:38;;;;;;;;;;;;;;;;;;;;;
2021/01/25 02:36:05;;;;;;;;;;;;;;;;;;;;;
2021/01/25 02:39:18;;;;;;;1999.90;999.90;;;1.00;99.90;;;;;;4885058;29;20301;-82
2021/01/25 02:42:19;;;;;;;1999.90;999.90;;;1.00;99.90;;;;;;4888253;29;20238;-82
2021/01/25 02:45:42;;;;;;;1999.90;999.90;;;1.00;99.90;;;;;;4885056;29;20186;-81
2021/01/25 02:49:10;;;;;;;1999.90;999.90;;;1.00;99.90;;;;;;4831558;29;20253;-82
2021/01/25 02:52:36;;;;;;;1999.90;999.90;;;1.10;99.90;;;;;;4817542;29;20217;-82
2021/01/25 02:55:21;;;;;;;1999.90;999.90;;;1.10;99.90;;;;;;4938529;28;20717;-81
2021/01/25 03:01:50;;;;;;;1999.90;999.90;;;1.10;99.90;;;;;;4950617;28;20175;-81
2021/01/25 03:04:59;;;;;;;1999.90;999.90;;;1.10;99.90;;;;;;4957686;28;20192;-81
2021/01/25 03:08:21;;;;;;;1999.90;999.90;;;1.10;99.90;;;;;;4975661;28;20686;-81
2021/01/25 03:11:21;;;;;;;;;;;;;;;;;;;;;
2021/01/25 03:18:08;;;;;;;1999.90;999.90;;;1.00;99.90;;;;;;5016626;28;20542;-81
2021/01/25 03:25:26;;;;;;;;;;;;;;;;;;;;;
2021/01/25 03:31:11;;;;;;;1999.90;999.90;;;1.10;99.90;;;;;;5022113;28;20142;-81
2021/01/25 03:37:47;;;;;;;;;;;;;;;;;;;;;
2021/01/25 03:44:24;;;;;;;1999.90;999.90;;;1.10;99.90;;;;;;5016094;28;20182;-81
2021/01/25 03:47:54;;;;;;;;;;;;;;;;;;;;;
2021/01/25 03:54:20;;;;;;;1999.90;999.90;;;1.10;99.90;;;;;;4925293;29;20668;-81
2021/01/25 03:57:41;;;;;;;1999.90;999.90;;;1.10;99.90;;;;;;4910179;29;20188;-81
2021/01/25 04:04:49;;;;;;;;;;;;;;;;;;;;;
2021/01/25 04:07:45;;;;;;;1999.90;999.90;;;1.20;99.90;;;;;;5022263;28;20716;-82
2021/01/25 04:10:51;;;;;;;1999.90;999.90;;;1.20;99.90;;;;;;4963782;28;20265;-81
2021/01/25 04:13:46;;;;;;;;;;;;;;;;;;;;;
2021/01/25 04:17:27;;;;;;;;;;;;;;;;;;;;;
2021/01/25 04:34:04;;;;;;;1999.90;999.90;;;1.10;99.90;;;;;;4942352;28;20187;-81
2021/01/25 04:37:18;;;;;;;1999.90;999.90;;;1.10;99.90;;;;;;5036433;28;20183;-82
2021/01/25 04:47:19;;;;;;;1999.90;999.90;;;1.20;99.90;;;;;;5023762;28;20256;-81
2021/01/25 04:57:25;;;;;;;1999.90;999.90;;;1.10;99.90;;;;;;4961815;29;20376;-82
2021/01/25 05:00:36;;;;;;;1999.90;999.90;;;1.10;99.90;;;;;;4945454;29;20211;-81
2021/01/25 05:03:31;;;;;;;1999.90;999.90;;;1.10;99.90;;;;;;4942579;29;20188;-81
2021/01/25 05:09:44;;;;;;;1999.90;999.90;;;1.10;99.90;;;;;;4886835;29;20179;-81
2021/01/25 05:16:25;;;;;;;1999.90;999.90;;;1.10;99.90;;;;;;4978789;28;20179;-80
2021/01/25 05:19:28;;;;;;;1999.90;999.90;;;1.10;99.90;;;;;;4885816;29;20212;-81
2021/01/25 05:22:19;;;;;;;;;;;;;;;;;;;;;
2021/01/25 05:25:28;;;;;;;1999.90;999.90;;;1.20;99.90;;;;;;4943112;29;20259;-81
2021/01/25 05:28:33;;;;;;;;;;;;;;;;;;;;;
2021/01/25 05:31:38;;;;;;;;;;;;;;;;;;;;;
2021/01/25 05:48:25;;;;;;;1999.90;999.90;;;1.20;99.90;;;;;;4967673;28;20186;-81
2021/01/25 05:51:43;;;;;;;1999.90;999.90;;;1.20;99.90;;;;;;4934894;28;20182;-81
2021/01/25 05:54:56;;;;;;;1999.90;999.90;;;1.20;99.90;;;;;;5008061;28;20187;-81
2021/01/25 05:57:59;;;;;;;1999.90;999.90;;;1.30;99.90;;;;;;5041868;28;20177;-81
2021/01/25 06:00:44;;;;;;;1999.90;999.90;;;1.40;99.90;;;;;;5042203;28;20235;-80
2021/01/25 06:03:41;;;;;;;1999.90;999.90;;;1.40;99.90;;;;;;5043199;28;20180;-80
2021/01/25 06:06:59;;;;;;;1999.90;999.90;;;1.30;99.90;;;;;;5045079;28;20180;-81
2021/01/25 06:10:03;;;;;;;1999.90;999.90;;;1.40;99.90;;;;;;5065676;28;20157;-81
2021/01/25 06:13:08;;;;;;;;;;;;;;;;;;;;;
2021/01/25 06:15:51;;;;;;;1999.90;999.90;;;1.40;99.90;;;;;;5065737;28;20715;-81
2021/01/25 06:18:28;;;;;;;1999.90;999.90;;;1.40;99.90;;;;;;5065590;28;20155;-81
2021/01/25 06:21:11;;;;;;;1999.90;999.90;;;1.30;99.90;;;;;;5048850;28;20160;-81
2021/01/25 06:24:27;;;;;;;1999.90;999.90;;;1.30;99.90;;;;;;5048790;28;20156;-81
2021/01/25 06:29:55;;;;;;;1999.90;999.90;;;1.40;99.90;;;;;;5133308;22;20182;-81
2021/01/25 06:33:35;;;;;;;1999.90;999.90;;;1.50;99.90;;;;;;5088338;22;20225;-82
2021/01/25 06:36:11;;;;;;;1999.90;999.90;;;1.50;99.90;;;;;;5031800;28;20300;-81
2021/01/25 06:39:09;;;;;;;1999.90;999.90;;;1.40;99.90;;;;;;5040096;28;20177;-81
2021/01/25 06:42:06;;;;;;;1999.90;999.90;;;1.40;99.90;;;;;;5039848;28;20157;-82
2021/01/25 06:44:50;;;;;;;1999.90;999.90;;;1.50;99.90;;;;;;5040009;28;20141;-84
2021/01/25 06:47:18;;;;;;;1999.90;999.90;;;1.50;99.90;;;;;;5125567;22;20556;-88
2021/01/25 06:49:46;;;;;;;1999.90;999.90;;;1.50;99.90;;;;;;5062303;28;20168;-88
2021/01/25 06:52:13;;;;;;;1999.90;999.90;;;1.40;99.90;;;;;;5061903;28;20226;-87
2021/01/25 06:54:45;;;;;;;1999.90;999.90;;;1.40;99.90;;;;;;5062065;28;20168;-85
2021/01/25 06:57:22;;;;;;;1999.90;999.90;;;1.40;99.90;;;;;;5044723;28;20196;-87
2021/01/25 06:59:49;;;;;;;1999.90;999.90;;;1.40;99.90;;;;;;5044288;28;20275;-87
2021/01/25 07:02:20;;;;;;;1999.90;999.90;;;1.50;99.90;;;;;;5061718;28;20172;-85
2021/01/25 07:04:57;;;;;;;1999.90;999.90;;;1.50;99.90;;;;;;5044305;28;20153;-85
2021/01/25 07:07:30;;;;;;;1999.90;999.90;;;1.50;99.90;;;;;;5062014;28;20147;-88
2021/01/25 07:09:57;;;;;;;1999.90;999.90;;;1.60;99.90;;;;;;5062562;28;20536;-88
2021/01/25 07:12:24;;;;;;;1999.90;999.90;;;1.50;99.90;;;;;;5044077;28;20175;-88
2021/01/25 07:14:51;;;;;;;1999.90;999.90;;;1.50;99.90;;;;;;5061379;28;20161;-85
2021/01/25 07:17:17;;;;;;;1999.90;999.90;;;1.40;99.90;;;;;;5061465;28;20586;-85
2021/01/25 07:19:44;;;;;;;1999.90;999.90;;;1.40;99.90;;;;;;5060002;28;20184;-85
2021/01/25 07:22:10;;;;;;;1999.90;999.90;;;1.40;99.90;;;;;;5057341;28;20160;-84
2021/01/25 07:24:38;;;;;;;1999.90;999.90;;;1.50;99.90;;;;;;5040518;28;20164;-87
2021/01/25 07:27:04;;;;;;;1999.90;999.90;;;1.40;99.90;;;;;;5039302;28;20261;-87
2021/01/25 07:29:30;;;;;;;1999.90;999.90;;;1.50;99.90;;;;;;5057409;28;20168;-87
2021/01/25 07:31:58;;;;;;;1999.90;999.90;;;1.50;99.90;;;;;;5040137;28;20168;-87
2021/01/25 07:34:24;;;;;;;1999.90;999.90;;;1.60;99.90;;;;;;5057349;28;20239;-88
2021/01/25 07:36:51;;;;;;;1999.90;999.90;;;1.50;99.90;;;;;;5039321;28;20259;-87
2021/01/25 07:39:18;;;;;;;1999.90;999.90;;;1.50;99.90;;;;;;5038750;28;20193;-87
2021/01/25 07:41:44;;;;;;;1999.90;999.90;;;1.50;99.90;;;;;;5056150;28;20165;-87
2021/01/25 07:44:12;;;;;;;1999.90;999.90;;;1.50;99.90;;;;;;5039050;28;20171;-89
2021/01/25 07:46:39;;;;;;;1999.90;999.90;;;1.60;99.90;;;;;;5039069;28;20214;-88
2021/01/25 07:49:05;;;;;;;1999.90;999.90;;;1.70;99.90;;;;;;5058015;28;20164;-87
2021/01/25 07:51:33;;;;;;;1999.90;999.90;;;1.60;99.90;;;;;;5038583;28;20248;-87
2021/01/25 07:53:59;;;;;;;1999.90;999.90;;;1.70;99.90;;;;;;5039476;28;20525;-87
2021/01/25 07:56:26;;;;;;;1999.90;999.90;;;1.70;99.90;;;;;;5056963;28;20156;-87
2021/01/25 07:59:08;;;;;;;1999.90;999.90;;;1.80;99.90;;;;;;5056576;28;20195;-87
2021/01/25 08:01:59;;;;;;;1999.90;999.90;;;1.90;99.90;;;;;;5056508;28;20243;-87
2021/01/25 08:04:38;;;;;;;1999.90;999.90;;;1.90;99.90;;;;;;5040597;28;20210;-88
2021/01/25 08:07:07;;;;;;;1999.90;999.90;;;1.80;99.90;;;;;;5041342;28;20156;-87
2021/01/25 08:09:37;;;;;;;1999.90;999.90;;;1.70;99.90;;;;;;5058100;28;20535;-87
2021/01/25 08:12:04;;;;;;;1999.90;999.90;;;1.60;99.90;;;;;;5040927;28;20574;-86
2021/01/25 08:14:39;;;;;;;1999.90;999.90;;;1.60;99.90;;;;;;5057767;28;20171;-87
2021/01/25 08:17:13;;;;;;;1999.90;999.90;;;1.70;99.90;;;;;;5040190;28;20657;-86
2021/01/25 08:20:08;;;;;;;1999.90;999.90;;;1.70;99.90;;;;;;5039485;28;20181;-85
2021/01/25 08:22:45;;;;;;;1999.90;999.90;;;1.80;99.90;;;;;;5040238;28;20172;-86
2021/01/25 08:25:19;;;;;;;1999.90;999.90;;;1.80;99.90;;;;;;5040916;28;20161;-86
2021/01/25 08:27:55;;;;;;;1999.90;999.90;;;1.80;99.90;;;;;;5039286;28;20189;-87
2021/01/25 08:30:32;;;;;;;1999.90;999.90;;;1.90;99.90;;;;;;5039091;28;20164;-86
2021/01/25 08:33:01;;;;;;;1999.90;999.90;;;1.90;99.90;;;;;;5039392;28;20172;-86
2021/01/25 08:35:35;;;;;;;1999.90;999.90;;;1.90;99.90;;;;;;5040163;28;20184;-87
2021/01/25 08:38:08;;;;;;;1999.90;999.90;;;2.00;99.90;;;;;;5058083;28;20157;-87
2021/01/25 08:40:39;;;;;;;1999.90;999.90;;;2.00;99.90;;;;;;5058094;28;20214;-86
2021/01/25 08:43:16;;;;;;;1999.90;999.90;;;2.10;99.90;;;;;;5058582;28;20587;-87
2021/01/25 08:45:42;;;;;;;1999.90;999.90;;;2.10;99.90;;;;;;5058116;28;20152;-86
2021/01/25 08:48:09;;;;;;;1999.90;999.90;;;2.10;99.90;;;;;;5056871;28;20188;-86
2021/01/25 08:50:37;;;;;;;1999.90;999.90;;;2.00;99.90;;;;;;5056682;28;20652;-85
2021/01/25 08:53:10;;;;;;;1999.90;999.90;;;2.00;99.90;;;;;;5038069;28;20223;-85
2021/01/25 08:55:35;;;;;;;1999.90;999.90;;;2.00;99.90;;;;;;5037807;28;20670;-84
2021/01/25 08:58:02;;;;;;;1999.90;999.90;;;2.10;99.90;;;;;;5055540;28;20168;-85
2021/01/25 09:00:28;;;;;;;1999.90;999.90;;;2.10;99.90;;;;;;5037414;28;20454;-86
2021/01/25 09:02:59;;;;;;;1999.90;999.90;;;2.10;99.90;;;;;;5038166;28;20714;-85
2021/01/25 09:05:25;;;;;;;1999.90;999.90;;;2.10;99.90;;;;;;5056526;28;20399;-85
2021/01/25 09:07:51;;;;;;;1999.90;999.90;;;2.20;99.90;;;;;;5055844;28;20168;-85
2021/01/25 09:10:17;;;;;;;1999.90;999.90;;;2.20;99.90;;;;;;5056681;28;20252;-85
2021/01/25 09:12:43;;;;;;;1999.90;999.90;;;2.20;99.90;;;;;;5038572;28;20616;-85
2021/01/25 09:15:09;;;;;;;1999.90;999.90;;;2.20;99.90;;;;;;5037663;28;20172;-85
2021/01/25 09:17:40;;;;;;;1999.90;999.90;;;2.20;99.90;;;;;;5038045;28;20173;-85
2021/01/25 09:20:08;;;;;;;1999.90;999.90;;;2.10;99.90;;;;;;5056004;28;20182;-85
2021/01/25 09:22:34;;;;;;;1999.90;999.90;;;2.20;99.90;;;;;;5055759;28;20214;-86
2021/01/25 09:24:59;;;;;;;1999.90;999.90;;;2.20;99.90;;;;;;5055750;28;20165;-86
2021/01/25 09:27:25;;;;;;;1999.90;999.90;;;2.20;99.90;;;;;;5037978;28;20410;-86
2021/01/25 09:29:51;;;;;;;1999.90;999.90;;;2.20;99.90;;;;;;5055863;28;20636;-86
2021/01/25 09:32:17;;;;;;;1999.90;999.90;;;2.20;99.90;;;;;;5055897;28;20492;-86
2021/01/25 09:34:43;;;;;;;1999.90;999.90;;;2.20;99.90;;;;;;5038299;28;20169;-86
2021/01/25 09:37:09;;;;;;;1999.90;999.90;;;2.20;99.90;;;;;;5056599;28;20171;-86
2021/01/25 09:39:37;;;;;;;1999.90;999.90;;;2.20;99.90;;;;;;5042123;28;20188;-85
2021/01/25 09:42:04;;;;;;;1999.90;999.90;;;2.20;99.90;;;;;;5059714;28;20165;-85
2021/01/25 09:44:29;;;;;;;1999.90;999.90;;;2.20;99.90;;;;;;5041173;28;20628;-86
2021/01/25 09:46:56;;;;;;;1999.90;999.90;;;2.10;99.90;;;;;;5059414;28;20184;-85
2021/01/25 09:49:23;;;;;;;1999.90;999.90;;;2.10;99.90;;;;;;5060128;28;20578;-86
2021/01/25 09:51:48;;;;;;;1999.90;999.90;;;2.20;99.90;;;;;;5062189;28;20161;-85
2021/01/25 09:54:14;;;;;;;1999.90;999.90;;;2.10;99.90;;;;;;5041694;28;20704;-86
2021/01/25 09:56:40;;;;;;;1999.90;999.90;;;2.00;99.90;;;;;;5041674;28;20195;-86
2021/01/25 09:59:05;;;;;;;1999.90;999.90;;;2.10;99.90;;;;;;5042273;28;20199;-86
2021/01/25 10:01:31;;;;;;;1999.90;999.90;;;2.00;99.90;;;;;;5060935;28;20646;-86
2021/01/25 10:03:57;;;;;;;1999.90;999.90;;;2.10;99.90;;;;;;5060337;28;20203;-86
2021/01/25 10:06:23;;;;;;;1999.90;999.90;;;2.10;99.90;;;;;;5061084;28;20701;-86
2021/01/25 10:08:52;;;;;;;1999.90;999.90;;;2.10;99.90;;;;;;5043800;28;20176;-85
2021/01/25 10:11:20;;;;;;;1999.90;999.90;;;2.20;99.90;;;;;;5059060;28;20922;-85
2021/01/25 10:13:46;;;;;;;1999.90;999.90;;;2.30;99.90;;;;;;5041666;28;20172;-87
2021/01/25 10:16:11;;;;;;;1999.90;999.90;;;2.20;99.90;;;;;;5060025;28;20164;-86
2021/01/25 10:18:37;;;;;;;1999.90;999.90;;;2.20;99.90;;;;;;5060107;28;20221;-86
2021/01/25 10:21:03;;;;;;;1999.90;999.90;;;2.30;99.90;;;;;;5060192;28;20403;-85
2021/01/25 10:23:32;;;;;;;1999.90;999.90;;;2.40;99.90;;;;;;5042508;28;20403;-87
2021/01/25 10:25:57;;;;;;;1999.90;999.90;;;2.50;99.90;;;;;;5060253;28;20643;-87
2021/01/25 10:28:49;;;;;;;1999.90;999.90;;;2.60;99.90;;;;;;5061088;28;20172;-88
2021/01/25 10:31:18;;;;;;;1999.90;999.90;;;2.60;99.90;;;;;;5041472;28;20439;-86
2021/01/25 10:34:04;;;;;;;1999.90;999.90;;;2.60;99.90;;;;;;5059124;28;20161;-86
2021/01/25 10:36:44;;;;;;;1999.90;999.90;;;2.60;99.90;;;;;;5040814;28;20160;-86
2021/01/25 10:39:48;;;;;;;;;;;;;;;;;;;;;
2021/01/25 10:42:17;;;;;;;1999.90;999.90;;;2.70;99.90;;;;;;5060460;28;20255;-88
2021/01/25 10:44:52;;;;;;;1999.90;999.90;;;2.70;99.90;;;;;;5042626;28;20169;-87
2021/01/25 10:47:21;;;;;;;1999.90;999.90;;;2.60;99.90;;;;;;5043671;28;20185;-88
2021/01/25 10:49:48;;;;;;;1999.90;999.90;;;2.60;99.90;;;;;;5059365;28;20156;-87
2021/01/25 10:52:18;;;;;;;1999.90;999.90;;;2.60;99.90;;;;;;5061033;28;20168;-87
2021/01/25 10:54:43;;;;;;;1999.90;999.90;;;2.60;99.90;;;;;;5060709;28;20190;-87
2021/01/25 10:57:10;;;;;;;1999.90;999.90;;;2.50;99.90;;;;;;5060620;28;20240;-87
2021/01/25 10:59:36;;;;;;;1999.90;999.90;;;2.50;99.90;;;;;;5041530;28;20200;-87
2021/01/25 11:02:11;;;;;;;1999.90;999.90;;;2.60;99.90;;;;;;5058180;28;20505;-86
2021/01/25 11:04:40;;;;;;;1999.90;999.90;;;2.60;99.90;;;;;;5040615;28;20249;-86
2021/01/25 11:07:45;;;;;;;1999.90;999.90;;;2.70;99.90;;;;;;5040102;28;20177;-86
2021/01/25 11:10:22;;;;;;;1999.90;999.90;;;2.70;99.90;;;;;;5033687;28;20180;-86
2021/01/25 11:12:57;;;;;;;1999.90;999.90;;;2.70;99.90;;;;;;5057580;28;20176;-87
2021/01/25 11:15:30;;;;;;;1999.90;999.90;;;2.90;99.90;;;;;;5040134;28;20172;-87
2021/01/25 11:17:58;;;;;;;1999.90;999.90;;;3.00;99.90;;;;;;5042527;28;20186;-87
2021/01/25 11:20:51;;;;;;;1999.90;999.90;;;3.00;99.90;;;;;;5043053;28;20191;-87
2021/01/25 11:23:54;;;;;;;1999.90;999.90;;;3.00;99.90;;;;;;5043234;28;20153;-88
2021/01/25 11:26:29;;;;;;;1999.90;999.90;;;3.00;99.90;;;;;;5060719;28;20164;-87
2021/01/25 11:29:29;;;;;;;1999.90;999.90;;;3.00;99.90;;;;;;5043034;28;20171;-87
2021/01/25 11:32:08;;;;;;;1999.90;999.90;;;2.90;99.90;;;;;;5060480;28;20192;-87
2021/01/25 11:34:47;;;;;;;1999.90;999.90;;;2.90;99.90;;;;;;5060161;28;20184;-87
2021/01/25 11:37:23;;;;;;;1999.90;999.90;;;2.90;99.90;;;;;;5060467;28;20156;-88
2021/01/25 11:40:07;;;;;;;1999.90;999.90;;;3.00;99.90;;;;;;5042874;28;20200;-87
2021/01/25 11:43:08;;;;;;;1999.90;999.90;;;3.00;99.90;;;;;;5042264;28;20211;-88
2021/01/25 11:45:41;;;;;;;1999.90;999.90;;;3.00;99.90;;;;;;5004539;28;20172;-88
2021/01/25 11:48:29;;;;;;;1999.90;999.90;;;3.00;99.90;;;;;;5041715;28;20191;-87
2021/01/25 11:51:26;;;;;;;1999.90;999.90;;;2.90;99.90;;;;;;5040912;28;20196;-88
2021/01/25 11:54:01;;;;;;;1999.90;999.90;;;3.00;99.90;;;;;;5058068;28;20140;-88
2021/01/25 11:56:29;;;;;;;1999.90;999.90;;;3.00;99.90;;;;;;5039362;28;20190;-87
2021/01/25 11:59:35;;;;;;;;;;;;;;;;;;;;;
2021/01/25 12:02:08;;;;;;;1999.90;999.90;;;3.20;99.90;;;;;;5053958;28;20173;-87
2021/01/25 12:05:16;;;;;;;1999.90;999.90;;;3.20;99.90;;;;;;5041117;28;20152;-87
2021/01/25 12:07:48;;;;;;;1999.90;999.90;;;3.20;99.90;;;;;;5029617;28;20173;-88
2021/01/25 12:13:16;;;;;;;1999.90;999.90;;;3.20;99.90;;;;;;5056344;28;20195;-87
2021/01/25 12:15:42;;;;;;;1999.90;999.90;;;3.20;99.90;;;;;;5038947;28;20192;-87
2021/01/25 12:18:11;;;;;;;1999.90;999.90;;;3.10;99.90;;;;;;5055179;28;20214;-88
2021/01/25 12:21:15;;;;;;;1999.90;999.90;;;3.10;99.90;;;;;;5037529;28;20450;-88
2021/01/25 12:23:41;;;;;;;1999.90;999.90;;;3.10;99.90;;;;;;5037762;28;20160;-88
2021/01/25 12:26:33;;;;;;;1999.90;999.90;;;3.00;99.90;;;;;;5036905;28;20161;-88
2021/01/25 12:28:58;;;;;;;1999.90;999.90;;;3.00;99.90;;;;;;5055466;28;20145;-87
2021/01/25 12:31:59;;;;;;;1999.90;999.90;;;3.00;99.90;;;;;;5055046;28;20183;-88
2021/01/25 12:34:38;;;;;;;1999.90;999.90;;;3.10;99.90;;;;;;5036173;28;20180;-88
2021/01/25 12:37:15;;;;;;;1999.90;999.90;;;3.10;99.90;;;;;;5035628;28;20234;-87
2021/01/25 12:39:41;;;;;;;1999.90;999.90;;;3.00;99.90;;;;;;5053547;28;20234;-87
2021/01/25 12:42:10;;;;;;;1999.90;999.90;;;3.00;99.90;;;;;;5035989;28;20164;-87
2021/01/25 12:44:36;;;;;;;1999.90;999.90;;;3.10;99.90;;;;;;5036147;28;20165;-87
2021/01/25 12:47:04;;;;;;;1999.90;999.90;;;3.00;99.90;;;;;;5053968;28;20180;-87
2021/01/25 12:49:30;;;;;;;1999.90;999.90;;;3.10;99.90;;;;;;5036009;28;20922;-87
2021/01/25 12:52:04;;;;;;;1999.90;999.90;;;3.20;99.90;;;;;;5036761;28;20176;-87
2021/01/25 12:54:33;;;;;;;1999.90;999.90;;;3.20;99.90;;;;;;5037125;28;20164;-87
2021/01/25 12:57:02;;;;;;;1999.90;999.90;;;3.20;99.90;;;;;;5055227;28;20161;-87
2021/01/25 12:59:43;;;;;;;1999.90;999.90;;;3.20;99.90;;;;;;5036187;28;20196;-87
2021/01/25 13:02:12;;;;;;;1999.90;999.90;;;3.20;99.90;;;;;;5036309;28;20149;-87
2021/01/25 13:04:44;;;;;;;1999.90;999.90;;;3.20;99.90;;;;;;5053630;28;20161;-87
2021/01/25 13:07:27;;;;;;;1999.90;999.90;;;3.20;99.90;;;;;;5035764;28;20196;-87
2021/01/25 13:10:06;;;;;;;;;;;;;;;;;;;;;
2021/01/25 13:12:47;;;;;;;1999.90;999.90;;;3.20;99.90;;;;;;5053032;28;20153;-87
2021/01/25 13:22:05;;;;;;;1999.90;999.90;;;3.00;99.90;;;;;;4962642;28;20224;-87
2021/01/25 13:24:33;;;;;;;1999.90;999.90;;;2.90;99.90;;;;;;5052936;28;20172;-87
2021/01/25 13:26:59;;;;;;;1999.90;999.90;;;3.00;99.90;;;;;;5053324;28;20243;-88
2021/01/25 13:32:36;;;;;;;1999.90;999.90;;;3.00;99.90;;;;;;5053435;28;20414;-88
2021/01/25 13:35:11;;;;;;;1999.90;999.90;;;3.10;99.90;;;;;;5034954;28;20177;-87
2021/01/25 13:37:45;;;;;;;1999.90;999.90;;;3.20;99.90;;;;;;5053042;28;20145;-88
2021/01/25 13:40:13;;;;;;;1999.90;999.90;;;3.10;99.90;;;;;;5034967;28;20283;-87
2021/01/25 13:42:42;;;;;;;1999.90;999.90;;;3.10;99.90;;;;;;5052777;28;20572;-87
2021/01/25 13:45:30;;;;;;;1999.90;999.90;;;3.20;99.90;;;;;;5035087;28;20160;-87
2021/01/25 13:48:18;;;;;;;1999.90;999.90;;;3.30;99.90;;;;;;5035603;28;20187;-87
2021/01/25 13:50:44;;;;;;;1999.90;999.90;;;3.30;99.90;;;;;;5052810;28;20195;-88
2021/01/25 13:53:16;;;;;;;1999.90;999.90;;;3.40;99.90;;;;;;5052896;28;20644;-88
2021/01/25 13:55:41;;;;;;;1999.90;999.90;;;3.50;99.90;;;;;;5052682;28;20494;-87
2021/01/25 13:58:11;;;;;;;1999.90;999.90;;;3.50;99.90;;;;;;5052728;28;20655;-87
2021/01/25 14:00:42;;;;;;;1999.90;999.90;;;3.60;99.90;;;;;;5035084;28;20455;-88
2021/01/25 14:03:08;;;;;;;1999.90;999.90;;;3.70;99.90;;;;;;5052776;28;20224;-87
2021/01/25 14:05:36;;;;;;;1999.90;999.90;;;3.70;99.90;;;;;;5053067;28;20248;-87
2021/01/25 14:08:09;;;;;;;1999.90;999.90;;;3.70;99.90;;;;;;5036000;28;20414;-87
2021/01/25 14:10:50;;;;;;;;;;;;;;;;;;;;;
2021/01/25 14:14:05;;;;;;;1999.90;999.90;;;3.90;99.90;;;;;;5057905;28;20271;-82
2021/01/25 14:16:57;;;;;;;1999.90;999.90;;;3.90;99.90;;;;;;5052011;28;20184;-81
2021/01/25 14:19:25;;;;;;;1999.90;999.90;;;4.00;99.90;;;;;;5044811;28;20238;-80
2021/01/25 14:22:10;;;;;;;1999.90;999.90;;;4.00;99.90;;;;;;5058342;28;20171;-80
2021/01/25 14:29:43;;;;;;;;;;;;;;;;;;;;;
2021/01/25 14:35:39;;;;;;;1999.90;999.90;;;3.80;99.90;;;;;;5059443;28;20215;-79
2021/01/25 14:38:30;;;;;;;1999.90;999.90;;;3.70;99.90;;;;;;5036878;28;20183;-82
2021/01/25 14:41:18;;;;;;;1999.90;999.90;;;3.60;99.90;;;;;;5060712;28;20172;-81
2021/01/25 14:44:08;;;;;;;1999.90;999.90;;;3.60;99.90;;;;;;5042531;28;20260;-80
2021/01/25 14:54:07;;;;;;;1999.90;999.90;;;3.60;99.90;;;;;;4942749;29;20176;-82
2021/01/25 14:57:09;;;;;;;1999.90;999.90;;;3.60;99.90;;;;;;4956928;28;20226;-82
2021/01/25 15:00:11;;;;;;;1999.90;999.90;;;3.60;99.90;;;;;;4981020;28;20630;-82
2021/01/25 15:02:45;;;;;;;1999.90;999.90;;;3.50;99.90;;;;;;5042399;28;20176;-80
2021/01/25 15:23:31;;;;;;;1999.90;999.90;;;3.40;99.90;;;;;;4882280;29;20718;-81
2021/01/25 15:26:36;;;;;;;;;;;;;;;;;;;;;
2021/01/25 15:30:05;;;;;;;;;;;;;;;;;;;;;
2021/01/25 15:36:36;;;;;;;;;;;;;;;;;;;;;
2021/01/25 15:39:52;;;;;;;1999.90;999.90;;;3.20;99.90;;;;;;4902725;28;20250;-80
2021/01/25 15:42:30;;;;;;;1999.90;999.90;;;3.10;99.90;;;;;;4994645;28;20190;-79
2021/01/25 15:46:03;;;;;;;1999.90;999.90;;;3.00;99.90;;;;;;4989039;28;20172;-79
2021/01/25 15:52:03;;;;;;;1999.90;999.90;;;3.00;99.90;;;;;;4962354;28;20171;-82
2021/01/25 15:54:32;;;;;;;1999.90;999.90;;;3.00;99.90;;;;;;4980447;28;20186;-81
2021/01/25 15:57:39;;;;;;;1999.90;999.90;;;3.00;99.90;;;;;;5033928;28;20176;-81
2021/01/25 16:18:10;;;;;;;1999.90;999.90;;;2.90;99.90;;;;;;5061509;28;20194;-82
2021/01/25 16:21:21;;;;;;;1999.90;999.90;;;2.80;99.90;;;;;;4944315;29;20263;-82
2021/01/25 16:49:18;;;;;;;1999.90;999.90;;;2.10;99.90;;;;;;4827140;29;20180;-82
2021/01/25 16:58:46;;;;;;;;;;;;;;;;;;;;;
2021/01/25 17:01:18;;;;;;;1999.90;999.90;;;2.00;99.90;;;;;;4883609;29;20745;-81
2021/01/25 17:04:01;;;;;;;1999.90;999.90;;;1.90;99.90;;;;;;4933012;28;20725;-82
2021/01/25 17:06:39;;;;;;;1999.90;999.90;;;1.90;99.90;;;;;;5042334;28;20160;-82
2021/01/25 17:09:38;;;;;;;1999.90;999.90;;;2.00;99.90;;;;;;5041998;28;20264;-81
2021/01/25 17:12:08;;;;;;;1999.90;999.90;;;2.00;99.90;;;;;;5041329;28;20223;-82
2021/01/25 17:14:55;;;;;;;1999.90;999.90;;;2.00;99.90;;;;;;5041780;28;20508;-82
2021/01/25 17:17:39;;;;;;;1999.90;999.90;;;2.10;99.90;;;;;;5042252;28;20164;-82
2021/01/25 17:20:15;;;;;;;1999.90;999.90;;;2.10;99.90;;;;;;5060042;28;20689;-81
2021/01/25 17:23:05;;;;;;;1999.90;999.90;;;2.10;99.90;;;;;;5039901;28;20169;-81